createdAt,value
2019-03-13T00:01:15.029Z,1.60
2019-03-13T00:04:19.007Z,4.73
2019-03-13T00:07:22.931Z,2.67
2019-03-13T00:10:26.814Z,1.77
2019-03-13T00:13:30.662Z,1.93
2019-03-13T00:16:34.579Z,5.60
2019-03-13T00:19:38.425Z,4.67
2019-03-13T00:22:42.207Z,1.20
2019-03-13T00:25:46.205Z,1.93
2019-03-13T00:28:50.002Z,1.90
2019-03-13T00:31:53.840Z,1.37
2019-03-13T00:34:57.721Z,1.13
2019-03-13T00:38:01.592Z,1.37
2019-03-13T00:41:05.482Z,1.20
2019-03-13T00:44:09.307Z,1.70
2019-03-13T00:47:13.181Z,1.30
2019-03-13T00:50:28.509Z,1.37
2019-03-13T00:53:32.372Z,1.03
2019-03-13T00:56:36.262Z,1.83
2019-03-13T00:59:40.137Z,1.40
2019-03-13T01:02:45.464Z,1.77
2019-03-13T01:05:55.799Z,1.83
2019-03-13T01:08:59.606Z,1.43
2019-03-13T01:12:04.265Z,1.50
2019-03-13T01:15:08.303Z,2.20
2019-03-13T01:18:12.143Z,3.50
2019-03-13T01:21:16.072Z,2.73
2019-03-13T01:24:19.889Z,3.40
2019-03-13T01:27:23.713Z,3.80
2019-03-13T01:30:29.167Z,3.80
2019-03-13T01:33:32.951Z,4.20
2019-03-13T01:36:36.739Z,4.37
2019-03-13T01:39:40.533Z,4.03
2019-03-13T01:42:44.491Z,4.80
2019-03-13T01:45:48.290Z,4.57
2019-03-13T01:48:52.108Z,4.47
2019-03-13T01:51:55.983Z,5.07
2019-03-13T01:54:59.886Z,5.07
2019-03-13T01:58:03.777Z,5.47
2019-03-13T02:01:07.931Z,5.33
2019-03-13T02:04:11.868Z,5.53
2019-03-13T02:07:15.776Z,4.93
2019-03-13T02:10:19.565Z,4.73
2019-03-13T02:13:23.366Z,4.20
2019-03-13T02:16:27.201Z,4.37
2019-03-13T02:19:31.015Z,3.90
2019-03-13T02:22:34.864Z,3.63
2019-03-13T02:25:38.691Z,3.10
2019-03-13T02:28:42.528Z,3.07
2019-03-13T02:31:46.348Z,3.10
2019-03-13T02:34:50.225Z,4.40
2019-03-13T02:37:54.033Z,4.10
2019-03-13T02:40:57.840Z,2.77
2019-03-13T02:44:01.676Z,4.43
2019-03-13T02:47:05.513Z,2.73
2019-03-13T02:50:10.898Z,3.23
2019-03-13T02:53:14.706Z,3.30
2019-03-13T02:56:18.570Z,3.13
2019-03-13T02:59:22.364Z,2.93
2019-03-13T03:02:33.993Z,3.27
2019-03-13T03:05:37.823Z,3.90
2019-03-13T03:08:41.618Z,4.57
2019-03-13T03:11:45.466Z,4.93
2019-03-13T03:15:04.487Z,3.80
2019-03-13T03:18:08.346Z,4.10
2019-03-13T03:21:12.126Z,3.67
2019-03-13T03:24:15.958Z,3.13
2019-03-13T03:27:19.764Z,3.60
2019-03-13T03:30:23.910Z,2.87
2019-03-13T03:33:27.676Z,3.07
2019-03-13T03:36:31.836Z,3.60
2019-03-13T03:39:35.634Z,3.13
2019-03-13T03:42:39.589Z,2.97
2019-03-13T03:45:43.473Z,3.50
2019-03-13T03:48:47.318Z,3.47
2019-03-13T03:51:51.302Z,2.83
2019-03-13T03:54:55.112Z,3.93
2019-03-13T03:57:59.063Z,2.50
2019-03-13T04:01:03.011Z,2.97
2019-03-13T04:04:06.806Z,2.70
2019-03-13T04:07:10.623Z,4.20
2019-03-13T04:10:14.622Z,3.30
2019-03-13T04:13:18.408Z,3.27
2019-03-13T04:16:22.298Z,3.70
2019-03-13T04:19:26.097Z,2.63
2019-03-13T04:22:29.920Z,4.03
2019-03-13T04:25:37.855Z,3.50
2019-03-13T04:28:41.769Z,3.03
2019-03-13T04:31:45.565Z,3.33
2019-03-13T04:34:49.380Z,2.73
2019-03-13T04:37:53.232Z,3.57
2019-03-13T04:40:57.033Z,4.73
2019-03-13T04:44:00.878Z,3.77
2019-03-13T04:47:04.765Z,2.60
2019-03-13T04:50:08.654Z,3.23
2019-03-13T04:53:12.454Z,3.20
2019-03-13T04:56:16.255Z,3.27
2019-03-13T04:59:20.055Z,3.77
2019-03-13T05:02:23.881Z,4.73
2019-03-13T05:05:47.884Z,3.33
2019-03-13T05:09:18.432Z,4.27
2019-03-13T05:12:22.303Z,4.70
2019-03-13T05:15:26.121Z,4.07
2019-03-13T05:18:29.942Z,3.67
2019-03-13T05:21:33.798Z,4.33
2019-03-13T05:24:37.596Z,5.20
2019-03-13T05:27:41.502Z,5.10
2019-03-13T05:30:45.417Z,4.33
2019-03-13T05:33:49.445Z,4.07
2019-03-13T05:36:53.245Z,5.40
2019-03-13T05:39:57.089Z,6.27
2019-03-13T05:43:00.880Z,4.07
2019-03-13T05:46:04.752Z,5.03
2019-03-13T05:49:08.581Z,5.97
2019-03-13T05:52:12.395Z,3.93
2019-03-13T05:55:16.342Z,4.37
2019-03-13T05:58:20.157Z,4.37
2019-03-13T06:01:23.980Z,5.00
2019-03-13T06:04:27.790Z,3.83
2019-03-13T06:07:31.609Z,4.43
2019-03-13T06:10:35.560Z,4.30
2019-03-13T06:13:39.357Z,2.97
2019-03-13T06:16:43.157Z,4.03
2019-03-13T06:19:46.991Z,3.60
2019-03-13T06:22:50.808Z,4.50
2019-03-13T06:25:54.624Z,4.10
2019-03-13T06:28:58.446Z,3.70
2019-03-13T06:32:02.318Z,3.63
2019-03-13T06:35:06.325Z,2.73
2019-03-13T06:38:10.131Z,2.93
2019-03-13T06:41:14.042Z,3.17
2019-03-13T06:44:17.845Z,3.70
2019-03-13T06:47:24.855Z,2.93
2019-03-13T06:50:27.219Z,3.00
2019-03-13T06:53:31.068Z,3.53
2019-03-13T06:56:34.926Z,3.50
2019-03-13T06:59:56.401Z,3.83
2019-03-13T07:03:05.854Z,3.50
2019-03-13T07:06:37.688Z,4.53
2019-03-13T07:09:48.638Z,4.17
2019-03-13T07:13:04.737Z,4.53
2019-03-13T07:16:17.762Z,4.93
2019-03-13T07:19:35.594Z,5.27
2019-03-13T07:22:57.099Z,4.23
2019-03-13T07:26:18.799Z,5.37
2019-03-13T07:29:59.997Z,4.37
2019-03-13T07:33:25.688Z,4.67
2019-03-13T07:36:47.408Z,4.33
2019-03-13T07:40:10.314Z,4.20
2019-03-13T07:43:36.051Z,5.00
2019-03-13T07:47:17.140Z,3.63
2019-03-13T07:50:36.629Z,4.33
2019-03-13T07:53:50.152Z,3.53
2019-03-13T07:57:27.844Z,3.10
2019-03-13T08:00:40.769Z,4.27
2019-03-13T08:04:05.322Z,3.60
2019-03-13T08:07:17.564Z,3.97
2019-03-13T08:10:39.073Z,2.97
2019-03-13T08:14:11.009Z,4.23
2019-03-13T08:17:26.032Z,3.70
2019-03-13T08:20:48.168Z,4.13
2019-03-13T08:24:08.989Z,2.87
2019-03-13T08:27:30.899Z,4.43
2019-03-13T08:30:52.554Z,3.50
2019-03-13T08:34:27.385Z,3.60
2019-03-13T08:37:37.646Z,2.93
2019-03-13T08:40:47.678Z,2.80
2019-03-13T08:44:19.640Z,3.73
2019-03-13T08:47:37.161Z,3.07
2019-03-13T08:50:58.713Z,3.87
2019-03-13T08:54:13.060Z,2.93
2019-03-13T08:57:31.833Z,2.57
2019-03-13T09:00:45.048Z,3.60
2019-03-13T09:04:16.966Z,3.77
2019-03-13T09:07:29.973Z,2.70
2019-03-13T09:11:01.694Z,2.20
2019-03-13T09:14:16.264Z,2.53
2019-03-13T09:17:36.962Z,2.87
2019-03-13T09:20:55.551Z,2.60
2019-03-13T09:24:23.293Z,3.50
2019-03-13T09:27:37.260Z,3.47
2019-03-13T09:30:54.256Z,2.07
2019-03-13T09:34:29.017Z,2.70
2019-03-13T09:37:47.139Z,3.13
2019-03-13T09:41:14.295Z,2.20
2019-03-13T09:44:35.615Z,2.33
2019-03-13T09:47:46.788Z,3.73
2019-03-13T09:50:59.928Z,2.97
2019-03-13T09:54:22.764Z,4.30
2019-03-13T09:57:44.436Z,3.37
2019-03-13T10:00:54.889Z,3.37
2019-03-13T10:04:07.463Z,1.97
2019-03-13T10:07:36.750Z,2.20
2019-03-13T10:10:50.323Z,2.27
2019-03-13T10:14:00.775Z,2.93
2019-03-13T10:17:19.966Z,2.60
2019-03-13T10:20:50.814Z,3.13
2019-03-13T10:24:25.212Z,3.30
2019-03-13T10:27:35.880Z,3.50
2019-03-13T10:30:50.450Z,2.93
2019-03-13T10:34:10.861Z,3.30
2019-03-13T10:37:36.071Z,2.53
2019-03-13T10:41:01.374Z,3.20
2019-03-13T10:44:30.706Z,2.43
2019-03-13T10:47:44.312Z,2.47
2019-03-13T10:51:05.975Z,2.47
2019-03-13T10:54:37.001Z,2.63
2019-03-13T10:57:58.796Z,2.27
2019-03-13T11:01:20.493Z,1.70
2019-03-13T11:04:49.262Z,1.80
2019-03-13T11:08:06.694Z,1.43
2019-03-13T11:11:35.467Z,1.00
2019-03-13T11:15:00.973Z,1.70
2019-03-13T11:18:13.394Z,1.67
2019-03-13T11:21:22.100Z,1.60
2019-03-13T11:24:39.435Z,2.40
2019-03-13T11:27:51.660Z,2.20
2019-03-13T11:31:07.215Z,1.97
2019-03-13T11:34:33.040Z,1.20
2019-03-13T11:37:49.232Z,1.23
2019-03-13T11:41:05.991Z,1.07
2019-03-13T11:44:34.711Z,0.80
2019-03-13T11:47:56.431Z,0.63
2019-03-13T11:51:25.380Z,0.67
2019-03-13T11:54:41.461Z,0.90
2019-03-13T11:57:55.530Z,1.40
2019-03-13T12:01:17.682Z,1.53
2019-03-13T12:04:35.466Z,1.57
2019-03-13T12:07:48.309Z,1.90
2019-03-13T12:11:05.863Z,1.43
2019-03-13T12:14:31.708Z,1.47
2019-03-13T12:17:54.679Z,2.00
2019-03-13T12:21:11.115Z,1.83
2019-03-13T12:24:31.937Z,2.33
2019-03-13T12:27:48.337Z,1.90
2019-03-13T12:31:13.877Z,1.50
2019-03-13T12:34:28.640Z,1.03
2019-03-13T12:37:50.311Z,1.10
2019-03-13T12:41:22.492Z,1.37
2019-03-13T12:44:44.115Z,0.90
2019-03-13T12:51:35.429Z,1.70
2019-03-13T12:54:49.120Z,1.60
2019-03-13T12:58:09.334Z,1.37
2019-03-13T13:01:21.938Z,1.97
2019-03-13T13:04:35.910Z,2.33
2019-03-13T13:07:48.617Z,2.70
2019-03-13T13:11:09.291Z,3.30
2019-03-13T13:14:31.468Z,1.97
2019-03-13T13:17:57.636Z,3.10
2019-03-13T13:21:01.511Z,1.73
2019-03-13T13:24:05.693Z,1.60
2019-03-13T13:27:09.649Z,1.77
2019-03-13T13:30:14.804Z,1.63
2019-03-13T13:33:18.643Z,0.90
2019-03-13T13:36:22.524Z,1.10
2019-03-13T13:39:26.421Z,0.83
2019-03-13T13:42:30.200Z,1.20
2019-03-13T13:45:45.857Z,0.70
2019-03-13T13:48:49.721Z,0.90
2019-03-13T13:51:53.604Z,1.50
2019-03-13T13:54:57.424Z,1.10
2019-03-13T13:58:01.240Z,2.00
2019-03-13T14:01:05.186Z,1.63
2019-03-13T14:04:09.006Z,1.57
2019-03-13T14:07:12.809Z,3.93
2019-03-13T14:10:16.764Z,1.40
2019-03-13T14:13:20.582Z,4.40
2019-03-13T14:16:24.387Z,2.10
2019-03-13T14:19:28.263Z,2.60
2019-03-13T14:22:32.085Z,2.77
2019-03-13T14:25:35.949Z,10.00
2019-03-13T14:28:39.818Z,3.97
2019-03-13T14:31:43.633Z,4.30
2019-03-13T14:34:47.456Z,7.53
2019-03-13T14:37:51.400Z,4.10
2019-03-13T14:40:55.375Z,3.90
2019-03-13T14:43:59.392Z,5.57
2019-03-13T14:47:03.201Z,2.57
2019-03-13T14:50:08.481Z,4.00
2019-03-13T14:53:12.407Z,3.90
2019-03-13T14:56:16.338Z,2.50
2019-03-13T14:59:20.241Z,2.30
2019-03-13T15:02:24.013Z,1.63
2019-03-13T15:05:27.907Z,3.30
2019-03-13T15:08:31.694Z,5.50
2019-03-13T15:11:35.497Z,3.03
2019-03-13T15:14:39.270Z,3.23
2019-03-13T15:17:43.153Z,5.40
2019-03-13T15:20:47.121Z,2.93
2019-03-13T15:23:50.904Z,3.30
2019-03-13T15:26:54.737Z,3.10
2019-03-13T15:29:58.546Z,2.53
2019-03-13T15:33:02.446Z,2.93
2019-03-13T15:36:06.285Z,3.63
2019-03-13T15:39:10.232Z,3.63
2019-03-13T15:42:14.059Z,4.27
2019-03-13T15:45:19.062Z,3.77
2019-03-13T15:48:22.849Z,4.13
2019-03-13T15:51:26.637Z,3.40
2019-03-13T15:54:30.503Z,3.57
2019-03-13T15:57:34.384Z,4.70
2019-03-13T16:00:38.265Z,6.50
2019-03-13T16:03:42.169Z,29.13
2019-03-13T16:06:45.948Z,7.30
2019-03-13T16:09:49.852Z,10.77
2019-03-13T16:12:55.576Z,6.93
2019-03-13T16:15:59.558Z,10.43
2019-03-13T16:19:03.384Z,13.87
2019-03-13T16:22:08.167Z,11.07
2019-03-13T16:25:12.685Z,9.03
2019-03-13T16:28:16.594Z,7.17
2019-03-13T16:31:20.404Z,14.90
2019-03-13T16:34:24.200Z,4.33
2019-03-13T16:37:28.010Z,5.63
2019-03-13T16:40:32.128Z,4.47
2019-03-13T16:43:35.970Z,4.30
2019-03-13T16:46:39.811Z,7.00
2019-03-13T16:49:43.664Z,4.90
2019-03-13T16:52:47.472Z,4.17
2019-03-13T16:55:51.351Z,3.63
2019-03-13T16:59:02.822Z,4.50
2019-03-13T17:02:06.891Z,4.10
2019-03-13T17:05:11.644Z,4.03
2019-03-13T17:08:15.450Z,5.57
2019-03-13T17:11:19.287Z,3.80
2019-03-13T17:14:23.168Z,4.17
2019-03-13T17:17:27.045Z,5.67
2019-03-13T17:20:30.898Z,4.27
2019-03-13T17:23:34.783Z,3.70
2019-03-13T17:26:38.594Z,4.90
2019-03-13T17:29:42.402Z,4.17
2019-03-13T17:32:46.305Z,5.07
2019-03-13T17:35:50.210Z,4.13
2019-03-13T17:38:54.057Z,5.27
2019-03-13T17:41:57.848Z,17.20
2019-03-13T17:45:01.733Z,10.10
2019-03-13T17:48:07.177Z,29.53
2019-03-13T17:51:10.983Z,6.03
2019-03-13T17:54:14.794Z,5.87
2019-03-13T17:57:18.682Z,13.90
2019-03-13T18:00:29.678Z,20.10
2019-03-13T18:03:33.473Z,25.53
2019-03-13T18:06:37.446Z,58.00
2019-03-13T18:09:41.241Z,32.47
2019-03-13T18:12:45.150Z,25.77
2019-03-13T18:15:49.064Z,17.47
2019-03-13T18:18:52.844Z,9.20
2019-03-13T18:21:56.690Z,6.47
2019-03-13T18:25:00.534Z,9.60
2019-03-13T18:28:04.563Z,9.13
2019-03-13T18:31:08.464Z,11.90
2019-03-13T18:34:12.276Z,11.77
2019-03-13T18:37:16.161Z,10.53
2019-03-13T18:40:20.134Z,21.07
2019-03-13T18:43:23.958Z,14.73
2019-03-13T18:46:27.747Z,7.90
2019-03-13T18:49:31.574Z,6.53
2019-03-13T18:52:35.376Z,6.70
2019-03-13T18:55:39.332Z,12.80
2019-03-13T18:58:43.302Z,13.87
2019-03-13T19:01:47.176Z,7.63
2019-03-13T19:04:51.070Z,3.87
2019-03-13T19:07:54.949Z,3.20
2019-03-13T19:10:58.794Z,3.07
2019-03-13T19:14:02.598Z,3.73
2019-03-13T19:17:06.563Z,4.03
2019-03-13T19:20:12.007Z,3.07
2019-03-13T19:23:16.088Z,4.20
2019-03-13T19:26:20.020Z,4.30
2019-03-13T19:29:23.799Z,5.07
2019-03-13T19:32:27.611Z,3.70
2019-03-13T19:35:31.568Z,5.10
2019-03-13T19:38:35.374Z,4.60
2019-03-13T19:41:39.252Z,5.80
2019-03-13T19:44:43.088Z,3.87
2019-03-13T19:47:47.037Z,3.23
2019-03-13T19:50:50.946Z,4.30
2019-03-13T19:53:54.725Z,4.33
2019-03-13T19:56:58.611Z,3.10
2019-03-13T20:00:02.414Z,2.90
2019-03-13T20:03:07.150Z,2.87
2019-03-13T20:06:11.064Z,2.43
2019-03-13T20:09:15.013Z,2.40
2019-03-13T20:12:18.802Z,2.83
2019-03-13T20:15:23.351Z,3.33
2019-03-13T20:18:27.342Z,2.50
2019-03-13T20:21:31.503Z,2.87
2019-03-13T20:24:35.313Z,3.87
2019-03-13T20:27:39.387Z,3.30
2019-03-13T20:30:43.360Z,3.67
2019-03-13T20:33:47.164Z,3.20
2019-03-13T20:36:51.087Z,2.50
2019-03-13T20:39:54.879Z,2.40
2019-03-13T20:43:02.023Z,3.80
2019-03-13T20:46:04.833Z,3.10
2019-03-13T20:49:08.717Z,3.30
2019-03-13T20:52:12.539Z,3.03
2019-03-13T20:55:16.677Z,2.43
2019-03-13T20:58:20.606Z,4.13
2019-03-13T21:01:24.472Z,5.73
2019-03-13T21:04:28.256Z,4.07
2019-03-13T21:07:32.062Z,3.33
2019-03-13T21:10:35.953Z,4.80
2019-03-13T21:13:39.745Z,5.13
2019-03-13T21:16:43.600Z,2.80
2019-03-13T21:19:47.413Z,3.03
2019-03-13T21:22:51.296Z,3.13
2019-03-13T21:25:55.167Z,2.03
2019-03-13T21:28:58.967Z,2.47
2019-03-13T21:32:02.802Z,2.70
2019-03-13T21:35:06.881Z,2.80
2019-03-13T21:38:13.083Z,3.53
2019-03-13T21:41:16.297Z,2.40
2019-03-13T21:44:20.104Z,2.83
2019-03-13T21:47:23.980Z,2.53
2019-03-13T21:50:27.962Z,2.10
2019-03-13T21:53:31.803Z,2.50
2019-03-13T21:56:35.632Z,2.57
2019-03-13T21:59:39.455Z,1.97
2019-03-13T22:02:43.289Z,2.60
2019-03-13T22:05:47.193Z,2.40
2019-03-13T22:08:50.989Z,3.23
2019-03-13T22:11:54.807Z,3.63
2019-03-13T22:14:58.681Z,4.60
2019-03-13T22:18:02.503Z,4.10
2019-03-13T22:21:06.290Z,5.63
2019-03-13T22:24:10.070Z,4.50
2019-03-13T22:27:14.935Z,3.90
2019-03-13T22:30:20.451Z,4.10
2019-03-13T22:33:24.260Z,3.40
2019-03-13T22:36:28.148Z,3.80
2019-03-13T22:39:31.933Z,3.30
2019-03-13T22:42:35.716Z,4.43
2019-03-13T22:45:39.548Z,4.10
2019-03-13T22:48:43.371Z,3.30
2019-03-13T22:51:47.233Z,3.47
2019-03-13T22:54:51.035Z,3.47
2019-03-13T22:57:54.873Z,4.27
2019-03-13T23:01:06.659Z,5.13
2019-03-13T23:04:10.648Z,4.20
2019-03-13T23:07:14.543Z,4.30
2019-03-13T23:10:30.232Z,4.20
2019-03-13T23:13:35.555Z,3.60
2019-03-13T23:16:39.422Z,3.47
2019-03-13T23:19:43.443Z,3.87
2019-03-13T23:22:47.222Z,3.90
2019-03-13T23:25:51.127Z,3.37
2019-03-13T23:28:55.060Z,4.20
2019-03-13T23:31:58.884Z,3.20
2019-03-13T23:35:04.363Z,4.20
2019-03-13T23:38:08.711Z,3.70
2019-03-13T23:41:12.668Z,4.00
2019-03-13T23:44:16.547Z,3.57
2019-03-13T23:47:20.357Z,3.73
2019-03-13T23:50:24.157Z,3.33
2019-03-13T23:53:27.956Z,4.50
2019-03-13T23:56:31.743Z,3.60
2019-03-13T23:59:35.577Z,4.60
